Time;durP1;ratioP1;P1;durP2;ratioP2;P2;SDS_P1;SDS_P2;PMS_P1;PMS_P2;Temp;Humidity;BMP_temperature;BMP_pressure;BME280_temperature;BME280_humidity;BME280_pressure;Samples;Min_cycle;Max_cycle;Signal;HPM_P1;HPM_P2
2021/12/11 00:01:26;;;;;;;8.03;7.00;;;4.10;99.90;;;;;;4968643;28;20206;-73
2021/12/11 00:03:59;;;;;;;8.70;7.17;;;4.10;99.90;;;;;;4973086;28;20291;-75
2021/12/11 00:06:52;;;;;;;9.47;7.70;;;4.10;99.90;;;;;;4974593;28;20248;-74
2021/12/11 00:09:27;;;;;;;10.60;8.47;;;4.00;99.90;;;;;;4974772;28;20184;-75
2021/12/11 00:12:10;;;;;;;9.47;7.47;;;4.00;99.90;;;;;;4986317;28;20177;-74
2021/12/11 00:14:49;;;;;;;11.13;8.03;;;4.00;99.90;;;;;;4958615;28;20252;-75
2021/12/11 00:17:25;;;;;;;10.70;8.50;;;4.00;99.90;;;;;;4966012;28;20176;-75
2021/12/11 00:19:51;;;;;;;11.77;8.07;;;4.00;99.90;;;;;;4987324;28;20191;-75
2021/12/11 00:22:22;;;;;;;12.87;8.43;;;4.00;99.90;;;;;;4978491;28;20201;-75
2021/12/11 00:24:49;;;;;;;10.93;8.13;;;4.00;99.90;;;;;;4974648;28;20204;-75
2021/12/11 00:27:21;;;;;;;12.80;8.50;;;4.00;99.90;;;;;;4973587;28;20187;-75
2021/12/11 00:29:50;;;;;;;10.73;8.50;;;4.00;99.90;;;;;;4969649;28;20176;-74
2021/12/11 00:32:34;;;;;;;10.97;8.23;;;4.00;99.90;;;;;;4984174;28;20273;-75
2021/12/11 00:35:09;;;;;;;12.40;8.10;;;4.10;99.90;;;;;;4970304;28;20248;-74
2021/12/11 00:37:35;;;;;;;9.43;7.83;;;4.10;99.90;;;;;;4970774;28;20193;-75
2021/12/11 00:40:21;;;;;;;11.30;8.27;;;4.10;99.90;;;;;;4973686;28;20193;-72
2021/12/11 00:42:50;;;;;;;9.57;7.50;;;4.10;99.90;;;;;;4961837;28;20223;-73
2021/12/11 00:45:19;;;;;;;10.07;7.90;;;4.10;99.90;;;;;;4970927;28;20215;-74
2021/12/11 00:47:58;;;;;;;9.40;7.50;;;4.10;99.90;;;;;;4974370;28;20187;-75
2021/12/11 00:50:28;;;;;;;9.90;8.40;;;4.10;99.90;;;;;;4982907;28;20295;-74
2021/12/11 00:52:58;;;;;;;10.00;7.70;;;4.10;99.90;;;;;;4974449;28;20173;-72
2021/12/11 00:55:31;;;;;;;10.10;7.87;;;4.10;99.90;;;;;;4970601;28;20182;-71
2021/12/11 00:58:19;;;;;;;11.37;8.57;;;4.20;99.90;;;;;;4967657;28;20205;-73
2021/12/11 01:00:47;;;;;;;10.33;7.40;;;4.20;99.90;;;;;;4975294;28;20246;-73
2021/12/11 01:03:20;;;;;;;8.73;7.43;;;4.20;99.90;;;;;;4970142;28;20200;-74
2021/12/11 01:05:50;;;;;;;8.43;7.20;;;4.20;99.90;;;;;;4966133;28;20196;-74
2021/12/11 01:08:25;;;;;;;11.27;7.77;;;4.20;99.90;;;;;;4982885;28;20180;-74
2021/12/11 01:11:01;;;;;;;9.10;7.80;;;4.30;99.90;;;;;;4980578;28;20253;-73
2021/12/11 01:13:43;;;;;;;10.70;8.03;;;4.30;99.90;;;;;;4970184;28;20184;-72
2021/12/11 01:16:13;;;;;;;10.63;8.07;;;4.30;99.90;;;;;;4970417;28;20241;-74
2021/12/11 01:18:42;;;;;;;10.13;8.27;;;4.40;99.90;;;;;;4966489;28;20181;-74
2021/12/11 01:21:44;;;;;;;10.93;8.57;;;4.40;99.90;;;;;;4974035;28;20180;-72
2021/12/11 01:25:04;;;;;;;11.53;9.10;;;4.50;99.90;;;;;;4966546;28;20299;-74
2021/12/11 01:27:04;;;;;;;12.60;8.07;;;4.50;99.90;;;;;;4963156;28;20184;-74
2021/12/11 01:29:33;;;;;;;11.27;8.33;;;4.50;99.90;;;;;;4971354;28;20188;-74
2021/12/11 01:32:02;;;;;;;11.60;8.90;;;4.60;99.90;;;;;;4976756;28;20208;-74
2021/12/11 01:34:33;;;;;;;13.10;8.80;;;4.60;99.90;;;;;;4971025;28;20198;-73
2021/12/11 01:36:59;;;;;;;15.80;9.97;;;4.60;99.90;;;;;;4971745;28;20268;-74
2021/12/11 01:39:29;;;;;;;12.33;9.30;;;4.60;99.90;;;;;;4972817;28;20332;-72
2021/12/11 01:41:59;;;;;;;17.47;9.67;;;4.60;99.90;;;;;;4980744;28;20247;-74
2021/12/11 01:44:30;;;;;;;13.17;9.97;;;4.60;99.90;;;;;;4984319;28;20200;-74
2021/12/11 01:47:11;;;;;;;14.90;10.10;;;4.70;99.90;;;;;;4968814;28;20237;-75
2021/12/11 01:49:41;;;;;;;14.57;10.80;;;4.70;99.90;;;;;;4975500;28;20176;-73
2021/12/11 01:52:16;;;;;;;17.80;11.60;;;4.70;99.90;;;;;;4963449;28;20239;-75
2021/12/11 01:54:45;;;;;;;17.17;11.67;;;4.70;99.90;;;;;;4966038;28;20180;-74
2021/12/11 01:57:22;;;;;;;19.23;13.63;;;4.70;99.90;;;;;;4981207;28;20290;-74
2021/12/11 01:59:53;;;;;;;17.03;12.37;;;4.70;99.90;;;;;;4982205;28;20231;-73
2021/12/11 02:02:33;;;;;;;15.93;11.33;;;4.70;99.90;;;;;;4969937;28;20204;-74
2021/12/11 02:05:05;;;;;;;14.10;11.23;;;4.70;99.90;;;;;;4967349;28;20234;-75
2021/12/11 02:07:41;;;;;;;16.23;11.00;;;4.70;99.90;;;;;;4973786;28;20226;-74
2021/12/11 02:10:21;;;;;;;16.70;11.47;;;4.70;99.90;;;;;;4969848;28;20180;-74
2021/12/11 02:12:47;;;;;;;17.27;12.13;;;4.70;99.90;;;;;;4963005;28;20208;-75
2021/12/11 02:15:23;;;;;;;18.20;12.60;;;4.70;99.90;;;;;;4966530;28;20196;-75
2021/12/11 02:17:59;;;;;;;18.27;12.83;;;4.70;99.90;;;;;;4971214;28;20175;-74
2021/12/11 02:20:37;;;;;;;18.10;12.23;;;4.70;99.90;;;;;;4969831;28;20207;-74
2021/12/11 02:23:06;;;;;;;18.53;12.43;;;4.70;99.90;;;;;;4969155;28;20199;-73
2021/12/11 02:25:38;;;;;;;20.43;14.33;;;4.70;99.90;;;;;;4973398;28;20263;-74
2021/12/11 02:28:24;;;;;;;19.20;13.00;;;4.70;99.90;;;;;;4974355;28;20215;-73
2021/12/11 02:31:04;;;;;;;21.03;13.50;;;4.70;99.90;;;;;;4969772;28;20181;-74
2021/12/11 02:33:39;;;;;;;19.03;12.33;;;4.70;99.90;;;;;;4970779;28;20288;-74
2021/12/11 02:36:13;;;;;;;16.43;11.83;;;4.70;99.90;;;;;;4974812;28;20454;-73
2021/12/11 02:38:45;;;;;;;18.40;11.77;;;4.70;99.90;;;;;;4972770;28;20245;-74
2021/12/11 02:41:20;;;;;;;16.87;12.23;;;4.70;99.90;;;;;;4964320;28;20219;-75
2021/12/11 02:43:55;;;;;;;19.67;13.40;;;4.80;99.90;;;;;;4971010;28;20308;-73
2021/12/11 02:46:20;;;;;;;17.10;12.37;;;4.80;99.90;;;;;;4983407;28;20187;-75
2021/12/11 02:48:57;;;;;;;19.47;13.30;;;4.80;99.90;;;;;;4965197;28;20207;-75
2021/12/11 02:51:42;;;;;;;17.87;12.53;;;4.80;99.90;;;;;;4967803;28;20350;-73
2021/12/11 02:54:16;;;;;;;18.17;13.13;;;4.80;99.90;;;;;;4970503;28;20171;-74
2021/12/11 02:56:46;;;;;;;18.10;12.30;;;4.80;99.90;;;;;;4996991;28;20176;-74
2021/12/11 02:59:18;;;;;;;17.93;12.70;;;4.80;99.90;;;;;;4969187;28;20172;-74
2021/12/11 03:01:51;;;;;;;19.17;12.97;;;4.80;99.90;;;;;;4968749;28;20234;-74
2021/12/11 03:04:31;;;;;;;18.90;13.43;;;4.80;99.90;;;;;;4971989;28;20208;-72
2021/12/11 03:07:01;;;;;;;18.83;12.97;;;4.80;99.90;;;;;;4962608;28;20191;-72
2021/12/11 03:09:31;;;;;;;20.97;13.83;;;4.80;99.90;;;;;;4977762;28;20234;-72
2021/12/11 03:12:04;;;;;;;20.23;13.43;;;4.80;99.90;;;;;;4971958;28;20199;-74
2021/12/11 03:14:30;;;;;;;19.10;12.83;;;4.80;99.90;;;;;;5012901;28;20254;-74
2021/12/11 03:16:59;;;;;;;21.77;14.83;;;4.80;99.90;;;;;;4971889;28;20184;-74
2021/12/11 03:19:29;;;;;;;18.50;13.10;;;4.80;99.90;;;;;;4982865;28;20200;-74
2021/12/11 03:22:01;;;;;;;20.13;14.03;;;4.90;99.90;;;;;;4969894;28;20184;-73
2021/12/11 03:24:28;;;;;;;19.10;13.37;;;4.90;99.90;;;;;;4968894;28;20181;-74
2021/12/11 03:26:57;;;;;;;17.73;13.10;;;4.90;99.90;;;;;;4969676;28;20406;-73
2021/12/11 03:29:25;;;;;;;18.40;13.00;;;4.90;99.90;;;;;;4965412;28;20289;-74
2021/12/11 03:31:51;;;;;;;18.33;13.57;;;4.90;99.90;;;;;;4963353;28;20184;-74
2021/12/11 03:34:22;;;;;;;19.37;13.00;;;4.90;99.90;;;;;;4969972;28;20184;-74
2021/12/11 03:36:51;;;;;;;18.47;13.07;;;4.90;99.90;;;;;;4968613;28;20196;-74
2021/12/11 03:39:21;;;;;;;19.27;14.37;;;4.90;99.90;;;;;;4969505;28;20176;-74
2021/12/11 03:41:49;;;;;;;21.00;14.60;;;4.90;99.90;;;;;;4959193;28;20259;-74
2021/12/11 03:44:19;;;;;;;21.97;14.47;;;4.90;99.90;;;;;;4971693;28;20272;-73
2021/12/11 03:46:47;;;;;;;17.23;12.30;;;4.90;99.90;;;;;;4965465;28;20279;-74
2021/12/11 03:49:19;;;;;;;18.23;13.50;;;4.90;99.90;;;;;;4990362;28;20181;-74
2021/12/11 03:51:51;;;;;;;18.77;13.60;;;4.90;99.90;;;;;;4970373;28;20262;-73
2021/12/11 03:54:22;;;;;;;22.30;14.77;;;4.90;99.90;;;;;;4974856;28;20184;-74
2021/12/11 03:56:48;;;;;;;22.60;13.90;;;4.90;99.90;;;;;;4985353;28;20197;-74
2021/12/11 03:59:16;;;;;;;19.90;13.47;;;4.90;99.90;;;;;;4967513;28;20207;-74
2021/12/11 04:01:56;;;;;;;20.17;13.87;;;4.90;99.90;;;;;;4975673;28;20281;-73
2021/12/11 04:04:24;;;;;;;19.20;13.83;;;4.90;99.90;;;;;;4973250;28;20207;-74
2021/12/11 04:06:53;;;;;;;18.73;12.87;;;5.00;99.90;;;;;;4967719;28;20192;-72
2021/12/11 04:09:25;;;;;;;18.83;13.23;;;5.00;99.90;;;;;;4966319;28;20180;-74
2021/12/11 04:11:56;;;;;;;20.77;13.93;;;5.00;99.90;;;;;;4968795;28;20650;-73
2021/12/11 04:14:26;;;;;;;19.23;13.20;;;5.00;99.90;;;;;;4965335;28;20177;-75
2021/12/11 04:16:55;;;;;;;22.83;13.60;;;5.00;99.90;;;;;;4969919;28;20203;-74
2021/12/11 04:19:21;;;;;;;17.57;11.97;;;5.10;99.90;;;;;;4970553;28;20180;-75
2021/12/11 04:21:51;;;;;;;17.83;13.13;;;5.10;99.90;;;;;;4969779;28;20191;-71
2021/12/11 04:24:21;;;;;;;19.17;13.37;;;5.10;99.90;;;;;;4968763;28;20278;-72
2021/12/11 04:26:49;;;;;;;18.80;13.10;;;5.10;99.90;;;;;;4995328;28;20206;-72
2021/12/11 04:29:15;;;;;;;17.97;12.40;;;5.10;99.90;;;;;;4980070;28;20191;-73
2021/12/11 04:31:46;;;;;;;18.93;13.10;;;5.10;99.90;;;;;;4989721;28;20188;-74
2021/12/11 04:34:14;;;;;;;20.07;13.13;;;5.20;99.90;;;;;;4970454;28;20192;-71
2021/12/11 04:36:47;;;;;;;22.70;13.43;;;5.20;99.90;;;;;;4985937;28;20171;-67
2021/12/11 04:39:18;;;;;;;18.70;12.97;;;5.20;99.90;;;;;;4988252;28;20173;-74
2021/12/11 04:41:54;;;;;;;17.43;12.10;;;5.20;99.90;;;;;;4969543;28;20191;-74
2021/12/11 04:44:32;;;;;;;17.90;12.43;;;5.20;99.90;;;;;;4975072;28;20224;-75
2021/12/11 04:47:01;;;;;;;20.63;13.63;;;5.20;99.90;;;;;;4985199;28;20262;-75
2021/12/11 04:49:40;;;;;;;18.77;12.70;;;5.20;99.90;;;;;;4968677;28;20194;-73
2021/12/11 04:52:18;;;;;;;19.63;14.17;;;5.20;99.90;;;;;;4977664;28;20203;-74
2021/12/11 04:57:51;;;;;;;20.20;12.77;;;5.20;99.90;;;;;;4977668;28;20172;-74
2021/12/11 05:00:42;;;;;;;19.40;13.70;;;5.20;99.90;;;;;;4962311;28;20195;-74
2021/12/11 05:11:08;;;;;;;19.73;13.57;;;5.30;99.90;;;;;;4962944;28;20264;-74
2021/12/11 05:13:37;;;;;;;19.27;13.23;;;5.30;99.90;;;;;;4971711;28;20208;-74
2021/12/11 05:16:10;;;;;;;20.37;13.50;;;5.30;99.90;;;;;;4963320;28;20184;-74
2021/12/11 05:18:43;;;;;;;19.50;13.03;;;5.30;99.90;;;;;;4968565;28;20184;-74
2021/12/11 05:21:15;;;;;;;24.03;14.37;;;5.30;99.90;;;;;;4969941;28;20176;-75
2021/12/11 05:23:41;;;;;;;20.83;13.43;;;5.30;99.90;;;;;;4968264;28;20206;-74
2021/12/11 05:26:09;;;;;;;20.23;13.87;;;5.30;99.90;;;;;;4967361;28;20196;-71
2021/12/11 05:28:35;;;;;;;19.87;14.10;;;5.30;99.90;;;;;;4969742;28;20188;-74
2021/12/11 05:31:05;;;;;;;20.90;14.07;;;5.30;99.90;;;;;;4967448;28;20248;-73
2021/12/11 05:33:34;;;;;;;21.93;14.33;;;5.30;99.90;;;;;;4966279;28;20188;-73
2021/12/11 05:36:02;;;;;;;21.23;14.50;;;5.40;99.90;;;;;;4975569;28;20403;-73
2021/12/11 05:38:28;;;;;;;19.87;14.17;;;5.40;99.90;;;;;;4967928;28;20195;-75
2021/12/11 05:40:59;;;;;;;20.90;13.63;;;5.40;99.90;;;;;;4971391;28;20195;-74
2021/12/11 05:43:25;;;;;;;21.73;13.40;;;5.40;99.90;;;;;;4971172;28;20204;-74
2021/12/11 05:45:51;;;;;;;19.17;13.63;;;5.40;99.90;;;;;;4975514;28;20196;-74
2021/12/11 05:48:19;;;;;;;21.47;14.03;;;5.40;99.90;;;;;;5000175;28;20184;-73
2021/12/11 05:50:49;;;;;;;22.40;13.27;;;5.30;99.90;;;;;;4974043;28;20188;-72
2021/12/11 05:53:16;;;;;;;21.53;13.97;;;5.30;99.90;;;;;;4965501;28;20286;-73
2021/12/11 05:55:43;;;;;;;21.50;14.77;;;5.40;99.90;;;;;;4971917;28;20196;-72
2021/12/11 05:58:24;;;;;;;21.47;14.30;;;5.40;99.90;;;;;;4967906;28;20317;-74
2021/12/11 06:00:53;;;;;;;20.40;13.20;;;5.40;99.90;;;;;;4977505;28;20200;-73
2021/12/11 06:03:19;;;;;;;19.77;13.30;;;5.40;99.90;;;;;;4965634;28;20211;-75
2021/12/11 06:05:45;;;;;;;20.93;13.83;;;5.40;99.90;;;;;;4967373;28;20180;-75
2021/12/11 06:08:12;;;;;;;21.07;13.50;;;5.40;99.90;;;;;;4976341;28;20222;-73
2021/12/11 06:10:45;;;;;;;21.47;13.43;;;5.40;99.90;;;;;;4971752;28;20176;-74
2021/12/11 06:13:11;;;;;;;20.33;12.67;;;5.40;99.90;;;;;;4968855;28;20457;-73
2021/12/11 06:15:38;;;;;;;18.30;12.13;;;5.40;99.90;;;;;;4970226;28;20272;-73
2021/12/11 06:18:04;;;;;;;19.03;12.27;;;5.40;99.90;;;;;;4974012;28;20176;-74
2021/12/11 06:20:32;;;;;;;20.57;12.50;;;5.50;99.90;;;;;;4967924;28;20235;-72
2021/12/11 06:22:57;;;;;;;19.13;11.70;;;5.50;99.90;;;;;;4972623;28;20192;-70
2021/12/11 06:25:27;;;;;;;17.73;11.73;;;5.50;99.90;;;;;;4971050;28;20198;-75
2021/12/11 06:27:54;;;;;;;20.57;12.27;;;5.50;99.90;;;;;;4969812;28;20223;-75
2021/12/11 06:30:21;;;;;;;19.07;12.30;;;5.40;99.90;;;;;;4972160;28;20207;-76
2021/12/11 06:32:49;;;;;;;18.87;12.07;;;5.40;99.90;;;;;;4971099;28;20180;-75
2021/12/11 06:35:23;;;;;;;19.23;12.07;;;5.40;99.90;;;;;;4970478;28;20223;-75
2021/12/11 06:37:49;;;;;;;17.87;11.43;;;5.50;99.90;;;;;;4969869;28;20203;-74
2021/12/11 06:40:19;;;;;;;18.77;11.50;;;5.40;99.90;;;;;;4969979;28;20192;-72
2021/12/11 06:42:45;;;;;;;17.90;11.03;;;5.40;99.90;;;;;;4985889;28;20201;-75
2021/12/11 06:45:13;;;;;;;17.33;11.00;;;5.40;99.90;;;;;;4964927;28;20184;-75
2021/12/11 06:47:39;;;;;;;18.73;10.87;;;5.40;99.90;;;;;;4964898;28;20209;-75
2021/12/11 06:50:10;;;;;;;17.73;10.83;;;5.40;99.90;;;;;;4969252;28;20214;-72
2021/12/11 06:52:36;;;;;;;16.17;10.70;;;5.40;99.90;;;;;;4975345;28;20212;-73
2021/12/11 06:55:06;;;;;;;19.03;11.73;;;5.40;99.90;;;;;;4972985;28;20275;-74
2021/12/11 06:57:32;;;;;;;19.70;10.50;;;5.40;99.90;;;;;;4966062;28;20180;-73
2021/12/11 07:00:00;;;;;;;18.50;11.10;;;5.40;99.90;;;;;;4967394;28;20195;-75
2021/12/11 07:02:26;;;;;;;17.57;10.60;;;5.40;99.90;;;;;;4975390;28;20300;-73
2021/12/11 07:04:55;;;;;;;17.23;10.77;;;5.30;99.90;;;;;;4968278;28;20279;-75
2021/12/11 07:07:27;;;;;;;18.63;11.37;;;5.40;99.90;;;;;;4969836;28;20196;-74
2021/12/11 07:09:54;;;;;;;16.50;10.50;;;5.30;99.90;;;;;;4976804;28;20184;-76
2021/12/11 07:12:21;;;;;;;15.53;10.43;;;5.40;99.90;;;;;;4970379;28;20184;-74
2021/12/11 07:14:47;;;;;;;15.83;10.27;;;5.30;99.90;;;;;;4967714;28;20211;-72
2021/12/11 07:17:13;;;;;;;16.27;10.33;;;5.40;99.90;;;;;;4974634;28;20262;-75
2021/12/11 07:19:41;;;;;;;16.80;10.70;;;5.40;99.90;;;;;;4970482;28;20278;-74
2021/12/11 07:22:13;;;;;;;16.20;10.70;;;5.40;99.90;;;;;;4983109;28;20181;-73
2021/12/11 07:24:55;;;;;;;16.17;10.17;;;5.40;99.90;;;;;;4964603;28;20193;-76
2021/12/11 07:27:23;;;;;;;16.67;10.70;;;5.40;99.90;;;;;;4972508;28;20262;-74
2021/12/11 07:29:51;;;;;;;15.13;10.13;;;5.40;99.90;;;;;;4970439;28;20299;-75
2021/12/11 07:32:22;;;;;;;15.37;10.20;;;5.40;99.90;;;;;;4964007;28;20192;-76
2021/12/11 07:34:48;;;;;;;18.07;10.40;;;5.40;99.90;;;;;;4975006;28;20415;-75
2021/12/11 07:37:14;;;;;;;16.33;10.67;;;5.40;99.90;;;;;;4991046;28;20207;-73
2021/12/11 07:39:44;;;;;;;14.83;9.97;;;5.40;99.90;;;;;;4973963;28;20207;-73
2021/12/11 07:42:15;;;;;;;15.60;9.87;;;5.40;99.90;;;;;;4977016;28;20205;-73
2021/12/11 07:44:40;;;;;;;14.77;9.27;;;5.40;99.90;;;;;;4983242;28;20207;-74
2021/12/11 07:47:07;;;;;;;15.83;9.33;;;5.50;99.90;;;;;;4966124;28;20241;-75
2021/12/11 07:49:40;;;;;;;15.10;9.97;;;5.40;99.90;;;;;;4974271;28;20204;-73
2021/12/11 07:52:06;;;;;;;17.27;9.73;;;5.50;99.90;;;;;;4966353;28;20188;-74
2021/12/11 07:54:32;;;;;;;15.07;9.80;;;5.50;99.90;;;;;;4972858;28;20180;-73
2021/12/11 07:57:00;;;;;;;15.20;9.90;;;5.50;99.90;;;;;;4973270;28;20187;-72
2021/12/11 07:59:26;;;;;;;15.03;9.17;;;5.60;99.90;;;;;;4970503;28;20247;-74
2021/12/11 08:01:57;;;;;;;16.20;10.20;;;5.60;99.90;;;;;;4969638;28;20288;-74
2021/12/11 08:04:24;;;;;;;14.77;9.83;;;5.60;99.90;;;;;;4974525;28;20195;-74
2021/12/11 08:06:52;;;;;;;16.77;10.60;;;5.70;99.90;;;;;;4969494;28;20181;-73
2021/12/11 08:09:24;;;;;;;15.73;10.13;;;5.70;99.90;;;;;;4972452;28;20207;-72
2021/12/11 08:11:58;;;;;;;16.23;10.77;;;5.70;99.90;;;;;;4966991;28;20243;-66
2021/12/11 08:14:26;;;;;;;18.37;10.70;;;5.80;99.90;;;;;;4969195;28;20180;-65
2021/12/11 08:16:56;;;;;;;15.53;10.27;;;5.80;99.90;;;;;;4964487;28;20272;-65
2021/12/11 08:19:26;;;;;;;14.10;9.20;;;5.90;99.90;;;;;;4971951;28;20188;-65
2021/12/11 08:21:55;;;;;;;14.67;9.70;;;5.90;99.90;;;;;;4967607;28;20211;-65
2021/12/11 08:24:26;;;;;;;12.83;8.83;;;5.90;99.90;;;;;;4972853;28;20267;-65
2021/12/11 08:27:00;;;;;;;15.07;9.53;;;6.00;99.90;;;;;;4978648;28;20184;-65
2021/12/11 08:29:31;;;;;;;16.30;9.73;;;6.00;99.90;;;;;;4964751;28;20211;-65
2021/12/11 08:31:58;;;;;;;14.23;9.23;;;6.00;99.90;;;;;;4982365;28;20179;-65
2021/12/11 08:34:24;;;;;;;14.10;8.57;;;6.00;99.90;;;;;;4966505;28;20188;-66
2021/12/11 08:36:53;;;;;;;13.07;8.93;;;6.00;99.90;;;;;;4970679;28;20179;-66
2021/12/11 08:39:20;;;;;;;13.77;9.13;;;6.00;99.90;;;;;;4971144;28;20180;-67
2021/12/11 08:41:48;;;;;;;14.73;9.97;;;6.00;99.90;;;;;;4972092;28;20240;-65
2021/12/11 08:44:17;;;;;;;14.93;9.33;;;6.00;99.90;;;;;;4976221;28;20196;-65
2021/12/11 08:46:48;;;;;;;14.77;9.63;;;6.00;99.90;;;;;;4970084;28;20233;-65
2021/12/11 08:49:21;;;;;;;15.40;9.47;;;6.00;99.90;;;;;;4968826;28;20192;-66
2021/12/11 08:51:59;;;;;;;14.97;10.07;;;6.00;99.90;;;;;;4968910;28;20263;-65
2021/12/11 08:54:28;;;;;;;15.10;9.90;;;6.10;99.90;;;;;;4978071;28;20204;-64
2021/12/11 08:56:59;;;;;;;15.60;8.97;;;6.10;99.90;;;;;;4968944;28;20187;-65
2021/12/11 08:59:30;;;;;;;13.63;9.30;;;6.10;99.90;;;;;;4984077;28;20184;-64
2021/12/11 09:02:36;;;;;;;14.77;9.27;;;6.10;99.90;;;;;;4978647;28;20222;-65
2021/12/11 09:05:17;;;;;;;15.47;10.00;;;6.10;99.90;;;;;;4972959;28;20202;-64
2021/12/11 09:07:50;;;;;;;13.77;9.63;;;6.10;99.90;;;;;;4981782;28;20204;-65
2021/12/11 09:10:19;;;;;;;15.80;10.07;;;6.10;99.90;;;;;;4971051;28;20185;-65
2021/12/11 09:12:50;;;;;;;15.73;9.87;;;6.10;99.90;;;;;;4966457;28;20280;-65
2021/12/11 09:15:25;;;;;;;14.30;9.60;;;6.10;99.90;;;;;;4980118;28;20181;-65
2021/12/11 09:18:20;;;;;;;13.77;8.67;;;6.10;99.90;;;;;;4986023;28;20187;-65
2021/12/11 09:21:03;;;;;;;14.83;9.67;;;6.10;99.90;;;;;;4974231;28;20273;-65
2021/12/11 09:24:04;;;;;;;13.97;9.47;;;6.20;99.90;;;;;;4985459;28;20239;-65
2021/12/11 09:26:45;;;;;;;16.63;10.47;;;6.20;99.90;;;;;;4968401;28;20211;-66
2021/12/11 09:29:17;;;;;;;16.57;10.20;;;6.20;99.90;;;;;;4981235;28;20168;-65
2021/12/11 09:32:15;;;;;;;15.77;10.40;;;6.10;99.90;;;;;;4970140;28;20271;-65
2021/12/11 09:34:55;;;;;;;14.07;9.57;;;6.10;99.90;;;;;;4967856;28;20183;-65
2021/12/11 09:37:22;;;;;;;14.53;9.17;;;6.10;99.90;;;;;;4966328;28;20196;-65
2021/12/11 09:40:15;;;;;;;14.17;9.10;;;6.10;99.90;;;;;;4965291;28;20318;-66
2021/12/11 09:42:40;;;;;;;14.53;9.57;;;6.10;99.90;;;;;;4976371;28;20307;-66
2021/12/11 09:45:17;;;;;;;13.13;9.07;;;6.10;99.90;;;;;;4978273;28;20267;-66
2021/12/11 09:47:52;;;;;;;14.73;9.33;;;6.20;99.90;;;;;;4972577;28;20204;-66
2021/12/11 09:50:24;;;;;;;12.30;8.77;;;6.20;99.90;;;;;;4980940;28;20199;-67
2021/12/11 09:52:56;;;;;;;13.63;8.73;;;6.20;99.90;;;;;;4982794;28;20223;-66
2021/12/11 09:55:27;;;;;;;13.63;9.20;;;6.20;99.90;;;;;;4971034;28;21981;-66
2021/12/11 09:58:00;;;;;;;13.37;8.87;;;6.20;99.90;;;;;;4977825;28;20192;-65
2021/12/11 10:00:32;;;;;;;13.33;9.20;;;6.20;99.90;;;;;;4972560;28;20291;-67
2021/12/11 10:03:05;;;;;;;12.37;8.70;;;6.20;99.90;;;;;;4956157;28;20197;-66
2021/12/11 10:05:38;;;;;;;11.37;8.03;;;6.20;99.90;;;;;;4971006;28;20187;-66
2021/12/11 10:11:14;;;;;;;12.60;8.90;;;6.20;99.90;;;;;;4968051;28;20279;-66
2021/12/11 10:13:53;;;;;;;14.90;9.37;;;6.20;99.90;;;;;;4965101;28;20309;-65
2021/12/11 10:16:25;;;;;;;12.50;8.37;;;6.30;99.90;;;;;;4964890;28;20366;-67
2021/12/11 10:18:53;;;;;;;13.60;9.03;;;6.30;99.90;;;;;;4970095;28;20177;-66
2021/12/11 10:21:26;;;;;;;14.90;9.97;;;6.30;99.90;;;;;;4964702;28;20184;-66
2021/12/11 10:23:58;;;;;;;14.00;9.57;;;6.30;99.90;;;;;;4968153;28;20207;-67
2021/12/11 10:26:28;;;;;;;13.27;9.27;;;6.30;99.90;;;;;;4969794;28;20188;-67
2021/12/11 10:29:00;;;;;;;13.87;9.40;;;6.40;99.90;;;;;;4966713;28;20176;-67
2021/12/11 10:31:37;;;;;;;13.50;9.37;;;6.40;99.90;;;;;;4977363;28;20184;-66
2021/12/11 10:34:08;;;;;;;13.27;9.30;;;6.40;99.90;;;;;;4967586;28;20233;-66
2021/12/11 10:36:42;;;;;;;14.33;8.87;;;6.40;99.90;;;;;;4975463;28;20185;-67
2021/12/11 10:39:13;;;;;;;12.97;9.30;;;6.40;99.90;;;;;;4973960;28;20400;-66
2021/12/11 10:41:39;;;;;;;12.73;9.03;;;6.40;99.90;;;;;;4968637;28;20188;-66
2021/12/11 10:44:13;;;;;;;13.37;8.50;;;6.40;99.90;;;;;;4969205;28;20295;-66
2021/12/11 10:46:46;;;;;;;13.77;8.97;;;6.50;99.90;;;;;;4966512;28;20196;-66
2021/12/11 10:49:18;;;;;;;12.87;8.23;;;6.50;99.90;;;;;;4968813;28;20214;-66
2021/12/11 10:51:48;;;;;;;13.37;8.30;;;6.50;99.90;;;;;;4971013;28;20232;-67
2021/12/11 10:54:18;;;;;;;11.67;8.57;;;6.50;99.90;;;;;;4968052;28;20190;-67
2021/12/11 10:56:44;;;;;;;12.23;8.53;;;6.50;99.90;;;;;;4979191;28;20224;-66
2021/12/11 10:59:18;;;;;;;13.13;8.30;;;6.60;99.90;;;;;;4960768;28;20451;-66
2021/12/11 11:02:00;;;;;;;13.47;8.63;;;6.60;99.90;;;;;;4980106;28;20253;-66
2021/12/11 11:04:31;;;;;;;11.10;7.90;;;6.60;99.90;;;;;;4969965;28;20227;-66
2021/12/11 11:07:01;;;;;;;10.33;7.80;;;6.60;99.90;;;;;;4966487;28;20238;-66
2021/12/11 11:09:29;;;;;;;11.20;8.17;;;6.60;99.90;;;;;;4955133;28;20184;-66
2021/12/11 11:11:57;;;;;;;11.60;7.90;;;6.60;99.90;;;;;;4972503;28;20282;-65
2021/12/11 11:14:26;;;;;;;10.80;7.87;;;6.60;99.90;;;;;;4966768;28;20231;-66
2021/12/11 11:16:58;;;;;;;11.00;7.70;;;6.60;99.90;;;;;;4980954;28;20224;-66
2021/12/11 11:19:27;;;;;;;12.17;8.47;;;6.70;99.90;;;;;;4974557;28;20188;-67
2021/12/11 11:21:58;;;;;;;12.60;8.07;;;6.70;99.90;;;;;;4970385;28;20191;-66
2021/12/11 11:24:30;;;;;;;10.20;7.30;;;6.70;99.90;;;;;;4973876;28;20204;-66
2021/12/11 11:26:57;;;;;;;9.50;6.87;;;6.70;99.90;;;;;;4968874;28;20177;-66
2021/12/11 11:29:25;;;;;;;10.43;7.30;;;6.80;99.90;;;;;;4987812;28;20243;-66
2021/12/11 11:31:56;;;;;;;10.00;6.63;;;6.80;99.90;;;;;;4975937;28;20201;-66
2021/12/11 11:34:26;;;;;;;9.20;6.80;;;6.80;99.90;;;;;;4966427;28;20184;-67
2021/12/11 11:36:54;;;;;;;9.80;6.63;;;6.90;99.90;;;;;;4973234;28;20207;-65
2021/12/11 11:39:25;;;;;;;8.27;6.27;;;6.90;99.90;;;;;;4978011;28;20211;-66
2021/12/11 11:42:01;;;;;;;10.27;6.40;;;7.00;99.90;;;;;;4967455;28;20188;-66
2021/12/11 11:44:29;;;;;;;8.47;6.03;;;7.00;99.90;;;;;;4976867;28;20302;-66
2021/12/11 11:46:59;;;;;;;10.00;6.77;;;7.00;99.90;;;;;;4966037;28;20177;-66
2021/12/11 11:49:27;;;;;;;10.90;7.00;;;7.00;99.90;;;;;;4957531;28;20224;-66
2021/12/11 11:52:00;;;;;;;10.33;7.00;;;7.00;99.90;;;;;;4964956;28;20186;-67
2021/12/11 11:54:31;;;;;;;9.27;6.30;;;7.10;99.90;;;;;;4969873;28;20188;-67
2021/12/11 11:57:09;;;;;;;8.83;6.40;;;7.10;99.90;;;;;;4978765;28;20189;-66
2021/12/11 11:59:39;;;;;;;8.63;6.30;;;7.20;99.90;;;;;;4971554;28;20189;-66
2021/12/11 12:02:10;;;;;;;8.90;5.80;;;7.20;99.90;;;;;;4966384;28;20243;-66
2021/12/11 12:04:39;;;;;;;7.97;5.53;;;7.30;99.90;;;;;;4985667;28;20195;-65
2021/12/11 12:07:07;;;;;;;9.53;6.17;;;7.30;99.90;;;;;;4979412;28;20267;-67
2021/12/11 12:09:39;;;;;;;7.53;5.63;;;7.30;99.90;;;;;;4965267;28;20213;-66
2021/12/11 12:12:09;;;;;;;9.13;6.17;;;7.40;99.90;;;;;;4967082;28;20181;-66
2021/12/11 12:14:36;;;;;;;6.90;5.40;;;7.40;99.90;;;;;;4970091;28;20187;-66
2021/12/11 12:17:04;;;;;;;6.70;5.20;;;7.50;99.90;;;;;;4977035;28;20196;-66
2021/12/11 12:19:32;;;;;;;8.37;5.40;;;7.50;99.90;;;;;;4969504;28;20184;-67
2021/12/11 12:22:03;;;;;;;6.70;4.87;;;7.50;99.90;;;;;;4971112;28;20253;-66
2021/12/11 12:24:31;;;;;;;6.50;4.73;;;7.60;99.90;;;;;;4970515;28;20224;-65
2021/12/11 12:26:59;;;;;;;7.10;4.47;;;7.60;99.90;;;;;;4971716;28;20191;-66
2021/12/11 12:29:31;;;;;;;6.13;4.13;;;7.70;99.90;;;;;;4977671;28;20227;-65
2021/12/11 12:32:01;;;;;;;5.80;4.03;;;7.70;99.90;;;;;;4971835;28;20211;-67
2021/12/11 12:34:28;;;;;;;5.13;3.77;;;7.80;99.90;;;;;;4974709;28;20227;-66
2021/12/11 12:36:55;;;;;;;5.57;3.60;;;7.80;99.90;;;;;;4980651;28;20180;-67
2021/12/11 12:39:25;;;;;;;4.97;3.30;;;7.90;99.90;;;;;;4970106;28;20215;-66
2021/12/11 12:42:04;;;;;;;5.90;3.13;;;8.00;99.90;;;;;;4970414;28;20446;-66
2021/12/11 12:44:33;;;;;;;5.13;3.27;;;8.00;99.90;;;;;;4973470;28;20353;-66
2021/12/11 12:47:12;;;;;;;4.83;3.40;;;8.10;99.90;;;;;;4973293;28;20244;-66
2021/12/11 12:49:45;;;;;;;5.50;3.43;;;8.10;99.90;;;;;;4968593;28;20267;-65
2021/12/11 12:52:19;;;;;;;5.07;3.27;;;8.10;99.90;;;;;;4984830;28;20188;-67
2021/12/11 12:54:45;;;;;;;3.27;2.63;;;8.20;99.90;;;;;;4972828;28;20188;-67
2021/12/11 12:57:35;;;;;;;4.43;2.73;;;8.20;99.90;;;;;;4973065;28;20267;-66
2021/12/11 13:00:34;;;;;;;4.97;2.87;;;8.30;99.90;;;;;;4967395;28;20214;-66
2021/12/11 13:03:08;;;;;;;4.83;2.43;;;8.30;99.90;;;;;;4972081;28;20200;-66
2021/12/11 13:05:44;;;;;;;6.53;2.53;;;8.40;99.90;;;;;;4968207;28;20277;-66
2021/12/11 13:08:27;;;;;;;4.87;2.30;;;8.40;99.90;;;;;;4992423;28;20184;-67
2021/12/11 13:11:26;;;;;;;4.47;2.47;;;8.40;99.90;;;;;;4972416;28;20250;-66
2021/12/11 13:13:54;;;;;;;4.30;2.30;;;8.40;99.90;;;;;;4987979;28;20223;-67
2021/12/11 13:16:25;;;;;;;5.13;2.60;;;8.50;99.90;;;;;;4967982;28;20203;-66
2021/12/11 13:18:59;;;;;;;6.27;2.87;;;8.50;99.90;;;;;;4987375;28;20192;-66
2021/12/11 13:21:41;;;;;;;4.97;2.70;;;8.50;99.90;;;;;;4971124;28;20177;-66